Time;durP1;ratioP1;P1;durP2;ratioP2;P2;SDS_P1;SDS_P2;PMS_P1;PMS_P2;Temp;Humidity;BMP_temperature;BMP_pressure;BME280_temperature;BME280_humidity;BME280_pressure;Samples;Min_cycle;Max_cycle;Signal;HPM_P1;HPM_P2
2023/08/16 00:00:02;;;;;;;12.65;9.50;;;16.50;87.00;;;;;;5093529;28;20210;-91
2023/08/16 00:02:27;;;;;;;14.50;9.85;;;16.50;86.90;;;;;;5093653;28;20278;-91
2023/08/16 00:04:53;;;;;;;13.07;10.70;;;16.50;87.00;;;;;;5093619;28;20689;-91
2023/08/16 00:07:18;;;;;;;12.57;10.20;;;16.50;86.90;;;;;;5093486;28;20182;-91
2023/08/16 00:09:44;;;;;;;11.18;10.00;;;16.40;86.80;;;;;;5093603;28;20159;-91
2023/08/16 00:12:09;;;;;;;12.07;10.18;;;16.40;86.90;;;;;;5093546;28;20173;-91
2023/08/16 00:14:35;;;;;;;12.52;9.93;;;16.30;87.00;;;;;;5093377;28;20228;-91
2023/08/16 00:17:01;;;;;;;12.52;9.85;;;16.40;87.20;;;;;;5092019;28;20206;-91
2023/08/16 00:19:26;;;;;;;10.10;9.30;;;16.30;87.20;;;;;;5093289;28;20171;-92
2023/08/16 00:21:52;;;;;;;10.27;9.25;;;16.30;87.30;;;;;;5093484;28;20167;-91
2023/08/16 00:24:17;;;;;;;13.07;9.90;;;16.20;87.30;;;;;;5093174;28;20195;-91
2023/08/16 00:26:43;;;;;;;10.60;9.57;;;16.30;87.30;;;;;;5093274;28;20174;-91
2023/08/16 00:29:09;;;;;;;20.67;18.92;;;16.20;87.40;;;;;;5094148;28;20268;-91
2023/08/16 00:31:34;;;;;;;20.88;19.17;;;16.20;87.50;;;;;;5093818;28;20186;-90
2023/08/16 00:34:00;;;;;;;11.25;9.90;;;16.20;87.50;;;;;;5098732;28;20179;-91
2023/08/16 00:36:25;;;;;;;12.07;9.93;;;16.20;87.60;;;;;;5098144;28;20194;-91
2023/08/16 00:38:51;;;;;;;10.50;9.52;;;16.20;87.40;;;;;;5099355;28;20553;-92
2023/08/16 00:41:17;;;;;;;20.77;18.70;;;16.20;87.30;;;;;;5098203;28;20178;-92
2023/08/16 00:43:42;;;;;;;23.95;21.90;;;16.20;87.10;;;;;;5098253;28;20250;-92
2023/08/16 00:46:11;;;;;;;10.77;9.68;;;16.30;86.90;;;;;;5099019;28;20658;-92
2023/08/16 00:48:38;;;;;;;11.60;10.52;;;16.20;86.70;;;;;;5098354;28;20185;-92
2023/08/16 00:51:05;;;;;;;12.50;10.27;;;16.20;86.50;;;;;;5096611;28;20642;-90
2023/08/16 00:53:32;;;;;;;11.57;10.50;;;16.20;86.70;;;;;;5095711;28;20178;-90
2023/08/16 00:55:58;;;;;;;16.92;11.10;;;16.20;86.90;;;;;;5095271;28;20206;-91
2023/08/16 00:58:25;;;;;;;16.45;10.20;;;16.20;86.70;;;;;;5095716;28;20594;-90
2023/08/16 01:00:50;;;;;;;13.38;10.27;;;16.10;86.60;;;;;;5095746;28;20167;-90
2023/08/16 01:03:16;;;;;;;11.60;10.60;;;16.10;86.50;;;;;;5095578;28;20167;-90
2023/08/16 01:05:41;;;;;;;15.48;11.35;;;16.10;87.10;;;;;;5095592;28;20199;-90
2023/08/16 01:08:07;;;;;;;13.82;11.15;;;16.00;86.90;;;;;;5095544;28;20667;-91
2023/08/16 01:10:44;;;;;;;16.33;11.02;;;16.00;86.80;;;;;;5096558;28;20171;-90
2023/08/16 01:13:18;;;;;;;12.15;10.95;;;16.00;86.60;;;;;;5096496;28;20158;-90
2023/08/16 01:15:47;;;;;;;12.55;11.02;;;16.00;86.60;;;;;;5096315;28;20215;-90
2023/08/16 01:18:13;;;;;;;12.73;11.40;;;16.00;86.50;;;;;;5095105;28;20171;-90
2023/08/16 01:20:40;;;;;;;13.90;10.85;;;15.90;86.40;;;;;;5095879;28;20178;-90
2023/08/16 01:23:24;;;;;;;11.75;10.65;;;15.90;86.50;;;;;;5096112;28;20198;-90
2023/08/16 01:25:58;;;;;;;12.00;10.93;;;15.90;86.50;;;;;;5095350;28;20251;-91
2023/08/16 01:28:24;;;;;;;12.27;11.07;;;15.90;86.40;;;;;;5096087;28;20170;-90
2023/08/16 01:30:50;;;;;;;14.00;10.75;;;15.80;86.40;;;;;;5096251;28;20295;-90
2023/08/16 01:33:15;;;;;;;12.45;11.15;;;15.80;86.30;;;;;;5094901;28;20218;-91
2023/08/16 01:35:41;;;;;;;15.05;11.30;;;15.80;86.20;;;;;;5094852;28;20202;-90
2023/08/16 01:38:09;;;;;;;16.98;11.30;;;15.70;86.20;;;;;;5094780;28;20174;-90
2023/08/16 01:40:51;;;;;;;15.90;11.00;;;15.70;86.40;;;;;;5094697;28;20214;-90
2023/08/16 01:43:19;;;;;;;12.27;10.88;;;15.70;86.50;;;;;;5095473;28;20175;-90
2023/08/16 01:45:46;;;;;;;14.32;11.70;;;15.70;86.70;;;;;;5094427;28;20781;-90
2023/08/16 01:48:14;;;;;;;15.00;11.80;;;15.70;86.60;;;;;;5094444;28;20179;-90
2023/08/16 01:50:40;;;;;;;12.07;10.82;;;15.70;86.50;;;;;;5094815;28;20175;-90
2023/08/16 01:53:05;;;;;;;12.40;11.23;;;15.70;86.80;;;;;;5094832;28;20183;-90
2023/08/16 01:55:31;;;;;;;12.05;10.73;;;15.70;87.10;;;;;;5094725;28;20213;-90
2023/08/16 01:57:56;;;;;;;12.70;11.68;;;15.70;87.50;;;;;;5095214;28;20183;-91
2023/08/16 02:00:22;;;;;;;15.80;10.82;;;15.60;87.80;;;;;;5094185;28;20170;-90
2023/08/16 02:02:47;;;;;;;19.05;11.65;;;15.70;88.30;;;;;;5095742;28;20223;-90
2023/08/16 02:05:13;;;;;;;12.52;10.57;;;15.60;88.30;;;;;;5095418;28;20187;-90
2023/08/16 02:07:38;;;;;;;20.55;11.25;;;15.50;88.10;;;;;;5094277;28;20174;-90
2023/08/16 02:10:04;;;;;;;11.43;10.43;;;15.60;88.70;;;;;;5094050;28;20595;-90
2023/08/16 02:12:30;;;;;;;12.30;10.70;;;15.50;88.70;;;;;;5094382;28;20182;-90
2023/08/16 02:14:55;;;;;;;11.75;10.75;;;15.50;88.60;;;;;;5094426;28;20195;-90
2023/08/16 02:17:21;;;;;;;12.13;10.73;;;15.50;88.50;;;;;;5095320;28;20235;-90
2023/08/16 02:19:47;;;;;;;14.77;10.07;;;15.40;88.40;;;;;;5095289;28;20170;-90
2023/08/16 02:22:12;;;;;;;12.13;11.02;;;15.40;88.30;;;;;;5095332;28;20270;-90
2023/08/16 02:24:38;;;;;;;14.02;11.02;;;15.30;88.10;;;;;;5095115;28;20218;-90
2023/08/16 02:27:04;;;;;;;12.10;10.88;;;15.30;87.90;;;;;;5095133;28;20188;-90
2023/08/16 02:29:29;;;;;;;11.85;10.32;;;15.30;87.80;;;;;;5095259;28;20213;-90
2023/08/16 02:31:55;;;;;;;11.57;10.57;;;15.30;87.70;;;;;;5095224;28;20178;-90
2023/08/16 02:34:20;;;;;;;11.07;10.07;;;15.20;87.60;;;;;;5093992;28;20202;-90
2023/08/16 02:36:46;;;;;;;11.27;10.25;;;15.20;87.50;;;;;;5094840;28;20204;-90
2023/08/16 02:39:11;;;;;;;11.00;9.85;;;15.20;87.40;;;;;;5094862;28;20229;-90
2023/08/16 02:41:37;;;;;;;12.07;10.80;;;15.20;87.30;;;;;;5093779;28;20189;-90
2023/08/16 02:44:02;;;;;;;14.65;10.27;;;15.00;87.10;;;;;;5093568;28;20265;-91
2023/08/16 02:46:28;;;;;;;11.88;10.88;;;15.00;87.50;;;;;;5093360;28;20175;-90
2023/08/16 02:48:54;;;;;;;11.80;10.70;;;15.10;88.50;;;;;;5094526;28;20175;-90
2023/08/16 02:51:19;;;;;;;16.08;11.50;;;15.00;88.90;;;;;;5094473;28;20182;-90
2023/08/16 02:53:45;;;;;;;13.80;10.85;;;15.10;89.00;;;;;;5093224;28;20278;-90
2023/08/16 02:56:10;;;;;;;15.77;10.90;;;15.00;88.90;;;;;;5092847;28;20241;-90
2023/08/16 02:58:35;;;;;;;12.38;11.07;;;15.10;89.50;;;;;;5093305;28;20205;-90
2023/08/16 03:01:01;;;;;;;23.40;11.63;;;15.10;89.70;;;;;;5094272;28;20618;-90
2023/08/16 03:03:27;;;;;;;12.05;10.75;;;15.10;89.60;;;;;;5094248;28;20259;-90
2023/08/16 03:05:52;;;;;;;15.57;10.57;;;15.10;89.40;;;;;;5092992;28;20190;-90
2023/08/16 03:08:18;;;;;;;19.85;11.70;;;15.00;89.30;;;;;;5092868;28;20186;-90
2023/08/16 03:10:43;;;;;;;11.35;10.23;;;15.00;89.20;;;;;;5094222;28;20167;-90
2023/08/16 03:13:09;;;;;;;11.95;10.90;;;15.10;89.30;;;;;;5094350;28;20178;-90
2023/08/16 03:15:34;;;;;;;11.27;9.93;;;15.00;89.20;;;;;;5093229;28;20213;-90
2023/08/16 03:18:00;;;;;;;20.48;10.85;;;15.00;88.90;;;;;;5092887;28;20171;-90
2023/08/16 03:20:26;;;;;;;11.40;10.35;;;14.90;88.80;;;;;;5092748;28;20194;-90
2023/08/16 03:22:51;;;;;;;11.05;9.95;;;14.80;88.70;;;;;;5093282;28;20209;-90
2023/08/16 03:25:17;;;;;;;10.95;9.98;;;14.80;88.70;;;;;;5092660;28;20194;-90
2023/08/16 03:27:43;;;;;;;11.27;10.23;;;14.80;88.70;;;;;;5092776;28;20178;-90
2023/08/16 03:30:09;;;;;;;10.98;9.98;;;14.80;88.60;;;;;;5092775;28;20711;-90
2023/08/16 03:32:35;;;;;;;11.70;10.27;;;14.80;88.60;;;;;;5092885;28;20556;-90
2023/08/16 03:35:00;;;;;;;10.23;9.13;;;14.80;88.40;;;;;;5093870;28;20269;-90
2023/08/16 03:37:26;;;;;;;14.02;9.32;;;14.70;88.30;;;;;;5092579;28;20642;-90
2023/08/16 03:39:52;;;;;;;14.52;9.90;;;14.80;88.30;;;;;;5092893;28;20215;-90
2023/08/16 03:42:17;;;;;;;11.82;10.43;;;14.70;88.20;;;;;;5092396;28;20239;-90
2023/08/16 03:44:43;;;;;;;10.93;9.82;;;14.60;88.20;;;;;;5092634;28;20198;-90
2023/08/16 03:47:09;;;;;;;13.05;11.68;;;14.60;88.10;;;;;;5092673;28;20175;-91
2023/08/16 03:49:35;;;;;;;14.70;11.73;;;14.60;88.10;;;;;;5093172;28;20170;-90
2023/08/16 03:52:00;;;;;;;13.38;12.05;;;14.60;88.10;;;;;;5093516;28;20246;-90
2023/08/16 03:54:26;;;;;;;13.65;12.00;;;14.60;88.10;;;;;;5093392;28;20209;-90
2023/08/16 03:56:52;;;;;;;13.55;12.07;;;14.60;88.10;;;;;;5093357;28;20247;-90
2023/08/16 03:59:17;;;;;;;22.73;11.10;;;14.60;88.10;;;;;;5092309;28;20232;-90
2023/08/16 04:01:43;;;;;;;14.25;10.23;;;14.40;88.00;;;;;;5092960;28;20174;-90
2023/08/16 04:04:08;;;;;;;12.35;11.07;;;14.30;88.10;;;;;;5092231;28;20646;-90
2023/08/16 04:06:34;;;;;;;40.30;12.38;;;14.30;88.10;;;;;;5091871;28;20262;-90
2023/08/16 04:08:59;;;;;;;12.45;11.40;;;14.30;88.60;;;;;;5092261;28;20224;-90
2023/08/16 04:11:25;;;;;;;13.05;11.95;;;14.40;89.30;;;;;;5092087;28;20236;-90
2023/08/16 04:13:50;;;;;;;14.52;13.00;;;14.40;89.30;;;;;;5092319;28;20218;-90
2023/08/16 04:16:16;;;;;;;15.00;12.68;;;14.50;89.50;;;;;;5092354;28;20214;-90
2023/08/16 04:18:41;;;;;;;13.82;12.35;;;14.50;89.40;;;;;;5092092;28;20174;-90
2023/08/16 04:21:07;;;;;;;20.10;12.50;;;14.60;89.60;;;;;;5092051;28;20177;-90
2023/08/16 04:23:32;;;;;;;13.38;12.18;;;14.60;89.60;;;;;;5093230;28;20174;-91
2023/08/16 04:25:58;;;;;;;13.40;12.18;;;14.60;89.50;;;;;;5091983;28;20205;-90
2023/08/16 04:28:24;;;;;;;13.95;12.27;;;14.60;89.60;;;;;;5092252;28;20308;-90
2023/08/16 04:30:49;;;;;;;14.27;12.80;;;14.70;89.90;;;;;;5091990;28;20179;-90
2023/08/16 04:33:15;;;;;;;13.40;12.15;;;14.80;90.30;;;;;;5092034;28;20206;-90
2023/08/16 04:35:40;;;;;;;13.90;12.52;;;14.80;90.50;;;;;;5092533;28;20224;-91
2023/08/16 04:38:06;;;;;;;17.98;12.45;;;14.80;90.50;;;;;;5092183;28;20167;-90
2023/08/16 04:40:32;;;;;;;12.85;11.75;;;14.80;90.40;;;;;;5091828;28;20181;-91
2023/08/16 04:42:57;;;;;;;43.35;12.88;;;14.90;90.30;;;;;;5092339;28;20179;-90
2023/08/16 04:45:23;;;;;;;25.60;12.05;;;15.00;90.40;;;;;;5092268;28;20191;-90
2023/08/16 04:47:48;;;;;;;50.28;11.45;;;14.90;90.80;;;;;;5091847;28;20175;-90
2023/08/16 04:50:14;;;;;;;18.95;9.73;;;14.90;91.00;;;;;;5091730;28;20170;-90
2023/08/16 04:52:39;;;;;;;32.92;10.15;;;15.00;91.30;;;;;;5093047;28;20175;-90
2023/08/16 04:55:06;;;;;;;16.15;9.90;;;15.00;91.40;;;;;;5091665;28;20237;-90
2023/08/16 04:57:31;;;;;;;11.32;10.13;;;15.00;91.50;;;;;;5093225;28;20171;-90
2023/08/16 04:59:57;;;;;;;10.60;9.88;;;15.00;91.70;;;;;;5092838;28;20178;-90
2023/08/16 05:02:23;;;;;;;11.05;10.00;;;15.00;91.80;;;;;;5091614;28;20240;-90
2023/08/16 05:04:48;;;;;;;10.48;9.68;;;15.00;91.80;;;;;;5091468;28;20670;-90
2023/08/16 05:07:14;;;;;;;10.93;9.75;;;15.00;92.00;;;;;;5091562;28;20227;-90
2023/08/16 05:09:39;;;;;;;10.65;9.18;;;15.10;92.10;;;;;;5091555;28;20203;-90
2023/08/16 05:12:05;;;;;;;15.15;10.00;;;15.10;92.00;;;;;;5092845;28;20206;-90
2023/08/16 05:14:31;;;;;;;10.88;10.07;;;15.00;92.00;;;;;;5091463;28;20198;-90
2023/08/16 05:16:56;;;;;;;11.23;10.32;;;15.10;91.90;;;;;;5091417;28;20206;-90
2023/08/16 05:19:22;;;;;;;13.10;11.45;;;15.10;91.90;;;;;;5092809;28;20182;-90
2023/08/16 05:21:47;;;;;;;12.70;11.68;;;15.20;91.80;;;;;;5095136;28;20650;-90
2023/08/16 05:24:13;;;;;;;13.38;12.10;;;15.20;91.70;;;;;;5094901;28;20596;-90
2023/08/16 05:26:38;;;;;;;14.98;11.93;;;15.30;92.10;;;;;;5096412;28;20177;-90
2023/08/16 05:29:04;;;;;;;12.90;11.60;;;15.30;92.00;;;;;;5096070;28;20181;-90
2023/08/16 05:31:29;;;;;;;13.95;12.65;;;15.30;91.90;;;;;;5096280;28;20170;-90
2023/08/16 05:33:55;;;;;;;19.25;12.55;;;15.30;92.00;;;;;;5095795;28;20288;-90
2023/08/16 05:36:20;;;;;;;15.85;12.93;;;15.50;92.10;;;;;;5094625;28;20678;-90
2023/08/16 05:38:46;;;;;;;20.55;14.38;;;15.50;92.10;;;;;;5095043;28;20171;-90
2023/08/16 05:41:12;;;;;;;25.17;21.23;;;15.60;92.20;;;;;;5095964;28;20178;-90
2023/08/16 05:43:37;;;;;;;24.92;21.00;;;15.60;92.10;;;;;;5095193;28;20662;-90
2023/08/16 05:46:03;;;;;;;23.45;21.17;;;15.70;92.20;;;;;;5096033;28;20220;-90
2023/08/16 05:48:28;;;;;;;21.80;14.68;;;15.80;92.20;;;;;;5094537;28;20183;-90
2023/08/16 05:50:54;;;;;;;22.17;14.45;;;15.90;92.30;;;;;;5094586;28;20181;-90
2023/08/16 05:53:20;;;;;;;26.15;21.15;;;16.00;92.30;;;;;;5095731;28;20223;-90
2023/08/16 05:55:45;;;;;;;31.42;23.33;;;16.00;92.30;;;;;;5094373;28;20301;-90
2023/08/16 05:58:11;;;;;;;25.77;23.15;;;16.10;92.40;;;;;;5094882;28;20175;-90
2023/08/16 06:00:36;;;;;;;20.67;14.80;;;16.20;92.50;;;;;;5094442;28;20170;-90
2023/08/16 06:03:03;;;;;;;19.48;15.48;;;16.10;92.50;;;;;;5094345;28;20598;-90
2023/08/16 06:05:28;;;;;;;26.45;22.75;;;16.20;92.60;;;;;;5094602;28;20198;-90
2023/08/16 06:07:54;;;;;;;25.60;22.92;;;16.30;92.60;;;;;;5094269;28;20547;-90
2023/08/16 06:10:20;;;;;;;23.77;17.60;;;16.30;92.70;;;;;;5094581;28;20640;-90
2023/08/16 06:12:45;;;;;;;21.42;19.25;;;16.30;92.70;;;;;;5094096;28;20193;-90
2023/08/16 06:15:11;;;;;;;22.90;18.77;;;16.40;92.80;;;;;;5094645;28;20202;-90
2023/08/16 06:17:40;;;;;;;23.25;18.95;;;16.50;92.80;;;;;;5095083;28;20591;-90
2023/08/16 06:20:07;;;;;;;28.17;18.60;;;16.50;92.80;;;;;;5094348;28;20232;-90
2023/08/16 06:22:34;;;;;;;20.98;18.75;;;16.50;92.80;;;;;;5094055;28;20170;-90
2023/08/16 06:24:59;;;;;;;24.67;18.92;;;16.50;92.80;;;;;;5095361;28;20736;-90
2023/08/16 06:27:25;;;;;;;26.73;18.00;;;16.60;92.80;;;;;;5093839;28;20209;-89
2023/08/16 06:29:50;;;;;;;19.23;17.27;;;16.60;92.70;;;;;;5093719;28;20175;-90
2023/08/16 06:32:16;;;;;;;21.83;17.48;;;16.60;92.60;;;;;;5093877;28;20183;-89
2023/08/16 06:34:42;;;;;;;22.20;16.48;;;16.60;92.70;;;;;;5093665;28;20190;-89
2023/08/16 06:37:07;;;;;;;19.08;16.65;;;16.70;92.60;;;;;;5093435;28;20210;-89
2023/08/16 06:39:33;;;;;;;22.85;16.63;;;16.80;92.60;;;;;;5094702;28;20170;-90
2023/08/16 06:41:59;;;;;;;23.42;16.63;;;16.80;92.60;;;;;;5093540;28;20175;-90
2023/08/16 06:44:24;;;;;;;16.20;14.70;;;16.80;92.60;;;;;;5093327;28;20239;-90
2023/08/16 06:46:50;;;;;;;21.27;15.60;;;16.80;92.50;;;;;;5094642;28;20539;-90
2023/08/16 06:49:16;;;;;;;20.05;15.20;;;16.80;92.40;;;;;;5093886;28;20189;-90
2023/08/16 06:51:41;;;;;;;16.98;14.07;;;16.80;92.30;;;;;;5093613;28;20171;-90
2023/08/16 06:54:07;;;;;;;18.00;13.57;;;17.00;92.30;;;;;;5094767;28;20218;-90
2023/08/16 06:56:33;;;;;;;13.93;12.05;;;17.10;92.10;;;;;;5093133;28;20198;-90
2023/08/16 06:58:58;;;;;;;16.67;10.95;;;17.00;91.80;;;;;;5093781;28;20175;-90
2023/08/16 07:01:24;;;;;;;12.02;10.93;;;17.00;91.50;;;;;;5094443;28;20642;-90
2023/08/16 07:03:49;;;;;;;12.20;10.80;;;17.00;91.20;;;;;;5093139;28;20239;-90
2023/08/16 07:06:15;;;;;;;13.52;10.30;;;17.10;91.00;;;;;;5093336;28;20194;-90
2023/08/16 07:08:41;;;;;;;12.65;10.65;;;17.10;90.50;;;;;;5093389;28;20646;-90
2023/08/16 07:11:06;;;;;;;19.40;11.45;;;17.20;90.20;;;;;;5093297;28;20734;-90
2023/08/16 07:13:32;;;;;;;15.50;10.30;;;17.20;90.00;;;;;;5094103;28;20665;-90
2023/08/16 07:15:57;;;;;;;18.10;11.65;;;17.20;89.70;;;;;;5093043;28;20213;-90
2023/08/16 07:18:24;;;;;;;14.68;10.48;;;17.30;89.50;;;;;;5094226;28;20348;-90
2023/08/16 07:20:50;;;;;;;11.82;10.25;;;17.30;89.10;;;;;;5094146;28;20159;-89
2023/08/16 07:23:16;;;;;;;12.73;11.07;;;17.30;88.60;;;;;;5092936;28;20182;-90
2023/08/16 07:25:41;;;;;;;20.17;10.25;;;17.50;88.50;;;;;;5093272;28;20199;-91
2023/08/16 07:28:07;;;;;;;13.52;8.77;;;17.60;88.40;;;;;;5092825;28;20527;-90
2023/08/16 07:30:38;;;;;;;16.85;9.57;;;17.60;88.00;;;;;;5094152;28;20216;-91
2023/08/16 07:36:03;;;;;;;15.40;9.40;;;17.70;87.00;;;;;;5094285;28;20213;-90
2023/08/16 07:38:32;;;;;;;14.95;9.68;;;17.80;86.80;;;;;;5092382;28;20650;-90
2023/08/16 07:40:58;;;;;;;10.90;9.65;;;17.90;86.00;;;;;;5092654;28;20174;-90
2023/08/16 07:43:24;;;;;;;12.40;10.80;;;17.80;85.20;;;;;;5091992;28;20597;-91
2023/08/16 07:45:53;;;;;;;12.23;10.90;;;17.80;84.70;;;;;;5093561;28;20582;-91
2023/08/16 07:48:19;;;;;;;13.38;11.90;;;18.00;85.10;;;;;;5093569;28;20170;-91
2023/08/16 07:50:45;;;;;;;13.30;11.75;;;17.90;84.70;;;;;;5092883;28;20261;-90
2023/08/16 07:53:11;;;;;;;12.93;11.60;;;18.00;84.40;;;;;;5092684;28;20238;-90
2023/08/16 07:55:37;;;;;;;13.63;12.32;;;18.20;84.00;;;;;;5092195;28;20206;-90
2023/08/16 07:58:03;;;;;;;14.68;12.40;;;18.40;84.10;;;;;;5092500;28;20175;-91
2023/08/16 08:00:29;;;;;;;14.48;12.15;;;18.50;83.50;;;;;;5092512;28;20178;-90
2023/08/16 08:02:55;;;;;;;15.80;14.20;;;18.40;83.00;;;;;;5093068;28;20198;-91
2023/08/16 08:05:21;;;;;;;15.07;13.68;;;18.50;82.80;;;;;;5094020;28;20226;-91
2023/08/16 08:07:48;;;;;;;16.58;13.30;;;18.70;82.30;;;;;;5093664;28;20171;-91
2023/08/16 08:10:14;;;;;;;15.85;14.25;;;18.80;82.10;;;;;;5092677;28;20261;-91
2023/08/16 08:12:44;;;;;;;23.75;14.75;;;18.80;80.20;;;;;;5093685;28;20169;-91
2023/08/16 08:15:10;;;;;;;18.40;15.43;;;19.00;81.50;;;;;;5093818;28;20191;-91
2023/08/16 08:17:36;;;;;;;23.00;15.82;;;18.90;80.40;;;;;;5094420;28;20261;-91
2023/08/16 08:20:14;;;;;;;17.95;16.23;;;19.10;82.10;;;;;;5094450;28;20300;-91
2023/08/16 08:22:39;;;;;;;17.85;15.20;;;19.00;80.40;;;;;;5094340;28;20151;-91
2023/08/16 08:25:06;;;;;;;22.40;16.05;;;19.10;81.80;;;;;;5093611;28;20348;-91
2023/08/16 08:27:31;;;;;;;16.33;13.35;;;19.20;82.20;;;;;;5093903;28;20210;-92
2023/08/16 08:29:57;;;;;;;20.10;14.52;;;19.20;82.20;;;;;;5092991;28;20174;-91
2023/08/16 08:32:22;;;;;;;16.73;13.80;;;19.10;81.90;;;;;;5092962;28;20171;-91
2023/08/16 08:34:48;;;;;;;21.73;14.63;;;19.30;81.70;;;;;;5094371;28;20674;-91
2023/08/16 08:37:13;;;;;;;15.25;13.75;;;19.40;81.80;;;;;;5093849;28;20614;-92
2023/08/16 08:39:39;;;;;;;16.55;15.05;;;19.40;80.20;;;;;;5093911;28;20638;-91
2023/08/16 08:42:08;;;;;;;16.98;13.68;;;19.50;78.60;;;;;;5093727;28;20171;-92
2023/08/16 08:44:37;;;;;;;16.48;13.40;;;19.50;78.80;;;;;;5094474;28;20194;-91
2023/08/16 08:47:05;;;;;;;16.20;14.63;;;19.60;78.80;;;;;;5094579;28;20174;-92
2023/08/16 08:49:34;;;;;;;17.48;15.45;;;19.70;79.70;;;;;;5093832;28;20588;-92
2023/08/16 08:52:02;;;;;;;18.48;16.58;;;19.70;78.40;;;;;;5092413;28;20670;-91
2023/08/16 08:54:27;;;;;;;17.40;16.02;;;19.80;78.20;;;;;;5094767;28;20293;-91
2023/08/16 08:56:53;;;;;;;18.90;17.00;;;19.90;77.10;;;;;;5098170;28;20218;-91
2023/08/16 08:59:19;;;;;;;23.13;20.95;;;20.10;76.30;;;;;;5097160;28;20243;-90
2023/08/16 09:01:46;;;;;;;28.83;26.52;;;20.00;76.60;;;;;;5096170;28;20182;-91
2023/08/16 09:04:13;;;;;;;30.27;27.83;;;20.20;76.30;;;;;;5097911;28;20167;-91
2023/08/16 09:06:40;;;;;;;30.38;27.58;;;20.50;76.50;;;;;;5098053;28;20173;-92
2023/08/16 09:09:07;;;;;;;19.25;17.30;;;20.50;74.30;;;;;;5097640;28;20171;-91
2023/08/16 09:11:32;;;;;;;19.70;17.60;;;20.50;75.20;;;;;;5097283;28;20219;-92
2023/08/16 09:14:02;;;;;;;29.10;26.58;;;20.40;74.30;;;;;;5098183;28;20663;-91
2023/08/16 09:16:27;;;;;;;27.83;25.33;;;20.70;74.70;;;;;;5098419;28;20194;-92
2023/08/16 09:18:53;;;;;;;18.92;17.48;;;20.70;73.00;;;;;;5098610;28;20174;-91
2023/08/16 09:21:19;;;;;;;19.10;17.50;;;20.90;73.20;;;;;;5097166;28;20565;-91
2023/08/16 09:23:54;;;;;;;18.85;17.27;;;21.20;72.70;;;;;;5098534;28;20217;-90
2023/08/16 09:26:21;;;;;;;19.20;17.60;;;21.30;69.60;;;;;;5095680;28;20741;-91
2023/08/16 09:28:46;;;;;;;19.02;17.48;;;21.20;70.60;;;;;;5095636;28;20210;-91
2023/08/16 09:31:12;;;;;;;20.27;18.45;;;21.40;70.20;;;;;;5096983;28;20173;-92
2023/08/16 09:33:38;;;;;;;19.17;17.77;;;21.50;70.60;;;;;;5104523;28;20182;-91
2023/08/16 09:36:04;;;;;;;20.10;18.13;;;21.60;70.70;;;;;;5101213;28;20289;-92
2023/08/16 09:38:32;;;;;;;19.65;17.95;;;21.50;68.60;;;;;;5097383;28;20175;-93
2023/08/16 09:40:58;;;;;;;20.02;18.10;;;21.30;70.30;;;;;;5099109;28;20542;-92
2023/08/16 09:43:24;;;;;;;19.75;18.00;;;21.70;70.70;;;;;;5095285;28;20171;-92
2023/08/16 09:45:54;;;;;;;20.60;18.90;;;21.60;69.30;;;;;;5095393;28;20187;-91
2023/08/16 09:48:25;;;;;;;20.83;18.77;;;21.20;70.00;;;;;;5094969;28;20185;-91
2023/08/16 09:50:50;;;;;;;19.40;17.85;;;21.40;70.40;;;;;;5094613;28;20562;-91
2023/08/16 09:53:16;;;;;;;19.17;17.48;;;21.60;70.20;;;;;;5094529;28;20174;-90
2023/08/16 09:55:45;;;;;;;19.92;18.17;;;22.00;71.30;;;;;;5094365;28;20214;-91
2023/08/16 09:58:12;;;;;;;20.92;19.15;;;21.90;68.10;;;;;;5094585;28;20178;-89
2023/08/16 10:00:39;;;;;;;19.48;17.85;;;21.90;68.10;;;;;;5094292;28;20196;-89
2023/08/16 10:03:05;;;;;;;18.25;16.65;;;21.90;69.00;;;;;;5094461;28;20261;-91
2023/08/16 10:05:31;;;;;;;20.75;17.75;;;22.00;70.00;;;;;;5095174;28;20721;-90
2023/08/16 10:08:00;;;;;;;19.00;17.25;;;21.80;68.80;;;;;;5094203;28;20672;-90
2023/08/16 10:10:26;;;;;;;19.13;17.35;;;22.00;69.70;;;;;;5094075;28;20270;-90
2023/08/16 10:12:53;;;;;;;18.52;16.98;;;22.00;69.40;;;;;;5095380;28;20206;-89
2023/08/16 10:15:19;;;;;;;18.75;17.50;;;22.10;69.70;;;;;;5094062;28;20206;-90
2023/08/16 10:17:48;;;;;;;20.20;18.33;;;22.10;67.60;;;;;;5095246;28;20253;-91
2023/08/16 10:20:18;;;;;;;19.20;17.40;;;21.90;66.70;;;;;;5094369;28;20258;-92
2023/08/16 10:22:50;;;;;;;21.50;19.55;;;22.20;65.60;;;;;;5094317;28;20265;-91
2023/08/16 10:25:23;;;;;;;21.33;19.40;;;22.30;66.40;;;;;;5095445;28;20197;-91
2023/08/16 10:27:50;;;;;;;22.00;20.08;;;22.60;69.30;;;;;;5095300;28;20170;-92
2023/08/16 10:30:21;;;;;;;21.73;20.13;;;22.80;65.50;;;;;;5096130;28;20198;-93
2023/08/16 10:33:04;;;;;;;21.27;19.48;;;23.00;67.80;;;;;;5096671;28;20594;-92
2023/08/16 10:35:30;;;;;;;21.65;19.77;;;23.10;67.40;;;;;;5095424;28;20681;-91
2023/08/16 10:37:57;;;;;;;20.55;18.92;;;23.30;62.90;;;;;;5093607;28;20670;-90
2023/08/16 10:40:24;;;;;;;20.48;18.67;;;22.90;64.20;;;;;;5094804;28;20224;-90
2023/08/16 10:43:03;;;;;;;20.70;19.00;;;23.20;66.00;;;;;;5095036;28;20167;-90
2023/08/16 10:45:34;;;;;;;21.67;19.75;;;23.10;64.30;;;;;;5093758;28;20267;-90
2023/08/16 10:48:10;;;;;;;21.30;19.55;;;22.90;65.70;;;;;;5093823;28;20202;-91
2023/08/16 10:50:36;;;;;;;19.58;17.90;;;23.30;65.50;;;;;;5095110;28;20545;-91
2023/08/16 10:53:02;;;;;;;20.80;19.00;;;23.60;64.70;;;;;;5095198;28;20173;-90
2023/08/16 10:55:28;;;;;;;20.58;18.85;;;24.00;64.80;;;;;;5093134;28;20308;-90
2023/08/16 10:57:54;;;;;;;20.35;18.80;;;24.20;64.10;;;;;;5093557;28;20177;-90
2023/08/16 11:00:27;;;;;;;18.85;17.25;;;23.60;64.20;;;;;;5094625;28;20166;-90
2023/08/16 11:02:54;;;;;;;19.08;17.40;;;23.70;64.00;;;;;;5094000;28;20182;-92
2023/08/16 11:05:21;;;;;;;19.15;17.42;;;23.40;64.70;;;;;;5093471;28;20601;-90
2023/08/16 11:07:47;;;;;;;18.75;17.17;;;23.50;64.60;;;;;;5093617;28;20555;-90
2023/08/16 11:10:13;;;;;;;19.02;17.38;;;23.50;63.00;;;;;;5093319;28;20173;-91
2023/08/16 11:12:39;;;;;;;19.20;17.70;;;23.60;62.70;;;;;;5095412;28;20171;-90
2023/08/16 11:15:05;;;;;;;18.27;16.83;;;23.40;64.20;;;;;;5093572;28;20602;-91
2023/08/16 11:17:32;;;;;;;18.30;16.90;;;23.50;62.50;;;;;;5099494;28;20173;-92
2023/08/16 11:20:00;;;;;;;18.58;17.05;;;23.60;63.30;;;;;;5095009;28;20171;-91
2023/08/16 11:22:26;;;;;;;19.13;17.45;;;23.20;63.90;;;;;;5093209;28;20181;-91
2023/08/16 11:24:52;;;;;;;19.15;17.25;;;23.10;64.90;;;;;;5094082;28;20686;-91
2023/08/16 11:27:24;;;;;;;17.95;16.33;;;23.00;65.50;;;;;;5094142;28;20664;-92
2023/08/16 11:29:50;;;;;;;18.58;16.98;;;23.00;66.30;;;;;;5095046;28;20253;-92
2023/08/16 11:32:28;;;;;;;17.52;15.98;;;23.20;65.70;;;;;;5094352;28;20183;-92
2023/08/16 11:34:54;;;;;;;20.88;19.10;;;23.20;64.70;;;;;;5094365;28;20204;-93
2023/08/16 11:37:19;;;;;;;25.05;22.77;;;23.30;63.50;;;;;;5093965;28;20202;-93
2023/08/16 11:39:45;;;;;;;26.17;24.08;;;23.20;65.10;;;;;;5098478;28;20250;-92
2023/08/16 11:42:10;;;;;;;19.20;17.48;;;23.20;64.20;;;;;;5093585;28;20177;-90
2023/08/16 11:44:38;;;;;;;19.02;17.50;;;22.70;65.20;;;;;;5092916;28;20247;-91
2023/08/16 11:47:09;;;;;;;19.73;18.02;;;22.60;65.90;;;;;;5093983;28;20171;-90
2023/08/16 11:49:36;;;;;;;19.55;17.70;;;22.50;67.70;;;;;;5093244;28;20163;-90
2023/08/16 11:52:01;;;;;;;19.77;18.05;;;22.70;66.80;;;;;;5092714;28;20658;-91
2023/08/16 11:54:28;;;;;;;18.38;16.80;;;22.60;67.10;;;;;;5093201;28;20213;-91
2023/08/16 11:56:53;;;;;;;18.98;17.20;;;22.90;66.20;;;;;;5092281;28;20202;-91
2023/08/16 11:59:29;;;;;;;18.52;16.90;;;22.50;65.90;;;;;;5092238;28;20175;-91
2023/08/16 12:01:55;;;;;;;18.40;16.70;;;22.70;66.60;;;;;;5093235;28;20170;-91
2023/08/16 12:04:22;;;;;;;18.42;16.80;;;22.40;65.40;;;;;;5092189;28;20194;-91
2023/08/16 12:06:48;;;;;;;18.65;17.08;;;22.70;67.50;;;;;;5093114;28;20548;-91
2023/08/16 12:09:19;;;;;;;19.10;17.30;;;22.90;66.30;;;;;;5092932;28;20185;-91
2023/08/16 12:11:50;;;;;;;18.17;16.77;;;22.70;65.50;;;;;;5093265;28;20166;-91
2023/08/16 12:14:16;;;;;;;19.30;17.80;;;22.20;65.90;;;;;;5092871;28;20198;-91
2023/08/16 12:16:41;;;;;;;20.27;18.67;;;22.20;66.60;;;;;;5092324;28;20253;-89
2023/08/16 12:19:07;;;;;;;17.77;16.15;;;22.60;68.10;;;;;;5092242;28;20660;-90
2023/08/16 12:21:32;;;;;;;18.80;16.88;;;22.70;65.20;;;;;;5092293;28;20262;-91
2023/08/16 12:23:58;;;;;;;18.67;17.17;;;23.10;66.80;;;;;;5092214;28;20253;-91
2023/08/16 12:26:23;;;;;;;18.38;16.35;;;23.40;65.70;;;;;;5093366;28;20198;-91